SAS956 EDDN-ESGG
Flight info
| Callsign | SAS956 |
|---|---|
| Flight time | N/A |
| Altitude | 37000 |
| Route | SULUS1G/28 SULUS L604 MASEK DCT ELNAT P605 GESKA Z706 NOVPO L997 RISMA |
| Aircraft | A319/M-SDE3FGHIRWY/LB1 |
Departure
| Time | 2026-05-07 16:24 |
|---|---|
| Airport | Nuremberg Airport (EDDN) |
Arrival
| Time | N/A |
|---|---|
| Airport | Göteborg Landvetter Airport (ESGG) |
| Time | Latitude | Longitude | Altitude | Speed | Heading |
|---|---|---|---|---|---|
| 2026-05-07 16:00 | 49.49496 | 11.08045 | 1026 ft | 0 kts | 188° |
| 2026-05-07 16:17 | 49.49498 | 11.08045 | 1026 ft | 2 kts | 188° |
| 2026-05-07 16:17 | 49.49523 | 11.08049 | 1026 ft | 4 kts | 179° |
| 2026-05-07 16:17 | 49.49549 | 11.08043 | 1027 ft | 4 kts | 148° |
| 2026-05-07 16:18 | 49.49561 | 11.08022 | 1026 ft | 1 kts | 98° |
| 2026-05-07 16:18 | 49.49561 | 11.08021 | 1027 ft | 0 kts | 98° |
| 2026-05-07 16:18 | 49.49561 | 11.08022 | 1027 ft | 0 kts | 98° |
| 2026-05-07 16:20 | 49.49561 | 11.08023 | 1026 ft | 1 kts | 98° |
| 2026-05-07 16:20 | 49.49554 | 11.08090 | 1028 ft | 12 kts | 98° |
| 2026-05-07 16:20 | 49.49538 | 11.08259 | 1028 ft | 18 kts | 98° |
| 2026-05-07 16:20 | 49.49603 | 11.08377 | 1033 ft | 15 kts | 44° |
| 2026-05-07 16:21 | 49.49606 | 11.08529 | 1035 ft | 15 kts | 98° |
| 2026-05-07 16:21 | 49.49590 | 11.08691 | 1037 ft | 16 kts | 99° |
| 2026-05-07 16:21 | 49.49573 | 11.08862 | 1038 ft | 16 kts | 99° |
| 2026-05-07 16:21 | 49.49555 | 11.09037 | 1040 ft | 17 kts | 98° |
| 2026-05-07 16:22 | 49.49537 | 11.09214 | 1043 ft | 16 kts | 99° |
| 2026-05-07 16:22 | 49.49540 | 11.09381 | 1046 ft | 15 kts | 61° |
| 2026-05-07 16:22 | 49.49599 | 11.09509 | 1050 ft | 14 kts | 54° |
| 2026-05-07 16:22 | 49.49647 | 11.09578 | 1052 ft | 15 kts | 23° |
| 2026-05-07 16:23 | 49.49707 | 11.09470 | 1051 ft | 23 kts | 279° |
| 2026-05-07 16:23 | 49.49768 | 11.08863 | 1041 ft | 90 kts | 278° |
| 2026-05-07 16:23 | 49.49891 | 11.07615 | 1047 ft | 141 kts | 280° |
| 2026-05-07 16:23 | 49.50038 | 11.06160 | 1624 ft | 137 kts | 279° |
| 2026-05-07 16:24 | 49.50181 | 11.04716 | 2251 ft | 137 kts | 281° |
| 2026-05-07 16:24 | 49.50333 | 11.03172 | 2601 ft | 156 kts | 281° |
| 2026-05-07 16:24 | 49.50506 | 11.01407 | 2897 ft | 178 kts | 279° |
| 2026-05-07 16:24 | 49.50702 | 10.99393 | 3178 ft | 203 kts | 279° |
| 2026-05-07 16:25 | 49.50925 | 10.97110 | 3610 ft | 228 kts | 279° |
| 2026-05-07 16:25 | 49.51233 | 10.94604 | 4214 ft | 247 kts | 290° |
| 2026-05-07 16:25 | 49.52304 | 10.92523 | 5094 ft | 256 kts | 326° |
| 2026-05-07 16:25 | 49.54001 | 10.91702 | 6058 ft | 265 kts | 352° |
| 2026-05-07 16:26 | 49.55864 | 10.91685 | 7016 ft | 270 kts | 1° |
| 2026-05-07 16:26 | 49.57757 | 10.91945 | 7926 ft | 274 kts | 3° |
| 2026-05-07 16:26 | 49.59652 | 10.92240 | 8813 ft | 278 kts | 2° |
| 2026-05-07 16:26 | 49.61601 | 10.92488 | 9703 ft | 283 kts | 1° |
| 2026-05-07 16:27 | 49.63593 | 10.92668 | 10389 ft | 294 kts | 360° |
| 2026-05-07 16:27 | 49.65717 | 10.92792 | 10693 ft | 315 kts | 359° |
| 2026-05-07 16:27 | 49.67947 | 10.92879 | 11306 ft | 324 kts | 359° |
| 2026-05-07 16:27 | 49.70207 | 10.92704 | 12070 ft | 326 kts | 348° |
| 2026-05-07 16:28 | 49.72392 | 10.91771 | 12844 ft | 327 kts | 338° |
| 2026-05-07 16:28 | 49.74553 | 10.90598 | 13620 ft | 330 kts | 338° |
| 2026-05-07 16:28 | 49.76736 | 10.89424 | 14322 ft | 334 kts | 339° |
| 2026-05-07 16:28 | 49.78920 | 10.88256 | 14958 ft | 338 kts | 339° |
| 2026-05-07 16:29 | 49.81156 | 10.87064 | 15622 ft | 342 kts | 339° |
| 2026-05-07 16:29 | 49.83422 | 10.85854 | 16273 ft | 345 kts | 339° |
| 2026-05-07 16:29 | 49.85705 | 10.84632 | 16923 ft | 349 kts | 339° |
| 2026-05-07 16:29 | 49.88014 | 10.83394 | 17589 ft | 352 kts | 339° |
| 2026-05-07 16:30 | 49.90343 | 10.82142 | 18246 ft | 356 kts | 339° |
| 2026-05-07 16:30 | 49.92699 | 10.80877 | 18835 ft | 359 kts | 340° |
| 2026-05-07 16:30 | 49.95067 | 10.79609 | 19426 ft | 362 kts | 340° |
| 2026-05-07 16:30 | 49.97466 | 10.78321 | 20020 ft | 365 kts | 340° |
| 2026-05-07 16:31 | 49.99849 | 10.77033 | 20624 ft | 368 kts | 340° |
| 2026-05-07 16:31 | 50.02283 | 10.75714 | 21189 ft | 371 kts | 340° |
| 2026-05-07 16:31 | 50.04730 | 10.74380 | 21757 ft | 374 kts | 338° |
| 2026-05-07 16:31 | 50.07068 | 10.72585 | 22317 ft | 376 kts | 327° |
| 2026-05-07 16:32 | 50.09144 | 10.70156 | 22865 ft | 379 kts | 317° |
| 2026-05-07 16:32 | 50.10992 | 10.67210 | 23428 ft | 381 kts | 313° |
| 2026-05-07 16:32 | 50.12825 | 10.64196 | 23944 ft | 384 kts | 313° |
| 2026-05-07 16:32 | 50.14674 | 10.61165 | 24403 ft | 387 kts | 313° |
| 2026-05-07 16:33 | 50.16541 | 10.58113 | 24853 ft | 389 kts | 313° |
| 2026-05-07 16:33 | 50.18429 | 10.55021 | 25196 ft | 396 kts | 313° |
| 2026-05-07 16:33 | 50.20337 | 10.51885 | 25627 ft | 399 kts | 313° |
| 2026-05-07 16:33 | 50.22230 | 10.48762 | 26048 ft | 402 kts | 313° |
| 2026-05-07 16:34 | 50.24167 | 10.45582 | 26471 ft | 405 kts | 313° |
| 2026-05-07 16:34 | 50.26133 | 10.42405 | 26931 ft | 407 kts | 313° |
| 2026-05-07 16:34 | 50.28120 | 10.39224 | 27425 ft | 409 kts | 313° |
| 2026-05-07 16:34 | 50.30120 | 10.36027 | 27849 ft | 412 kts | 314° |
| 2026-05-07 16:35 | 50.32135 | 10.32798 | 28257 ft | 415 kts | 313° |
| 2026-05-07 16:35 | 50.34152 | 10.29549 | 28716 ft | 417 kts | 313° |
| 2026-05-07 16:35 | 50.36127 | 10.26270 | 29120 ft | 420 kts | 311° |
| 2026-05-07 16:35 | 50.38056 | 10.22806 | 29548 ft | 423 kts | 310° |
| 2026-05-07 16:36 | 50.40014 | 10.19339 | 29978 ft | 425 kts | 311° |
| 2026-05-07 16:36 | 50.42035 | 10.15918 | 30343 ft | 427 kts | 313° |
| 2026-05-07 16:36 | 50.44099 | 10.12544 | 30715 ft | 429 kts | 313° |
| 2026-05-07 16:36 | 50.46166 | 10.09148 | 31034 ft | 431 kts | 313° |
| 2026-05-07 16:37 | 50.48202 | 10.05742 | 31352 ft | 433 kts | 312° |
| 2026-05-07 16:37 | 50.50263 | 10.02242 | 31633 ft | 436 kts | 312° |
| 2026-05-07 16:37 | 50.52323 | 9.98708 | 31996 ft | 437 kts | 312° |
| 2026-05-07 16:37 | 50.54373 | 9.95173 | 32457 ft | 435 kts | 311° |
| 2026-05-07 16:38 | 50.56367 | 9.91586 | 32883 ft | 435 kts | 310° |
| 2026-05-07 16:38 | 50.58304 | 9.87933 | 33303 ft | 435 kts | 309° |
| 2026-05-07 16:38 | 50.60189 | 9.84294 | 33731 ft | 434 kts | 308° |
| 2026-05-07 16:38 | 50.62084 | 9.80604 | 34166 ft | 433 kts | 308° |
| 2026-05-07 16:39 | 50.63986 | 9.76909 | 34515 ft | 432 kts | 308° |
| 2026-05-07 16:39 | 50.65893 | 9.73228 | 34830 ft | 433 kts | 309° |
| 2026-05-07 16:39 | 50.67811 | 9.69568 | 35120 ft | 433 kts | 310° |
| 2026-05-07 16:39 | 50.69986 | 9.66269 | 35391 ft | 435 kts | 322° |
| 2026-05-07 16:40 | 50.72562 | 9.63720 | 35658 ft | 437 kts | 333° |
| 2026-05-07 16:40 | 50.75419 | 9.62035 | 35921 ft | 440 kts | 345° |
| 2026-05-07 16:40 | 50.78444 | 9.61283 | 36174 ft | 442 kts | 356° |
| 2026-05-07 16:40 | 50.81494 | 9.61492 | 36412 ft | 445 kts | 6° |
| 2026-05-07 16:41 | 50.84580 | 9.62089 | 36652 ft | 446 kts | 6° |
| 2026-05-07 16:41 | 50.87667 | 9.62689 | 36898 ft | 447 kts | 6° |
| 2026-05-07 16:41 | 50.90757 | 9.63292 | 37035 ft | 448 kts | 6° |
| 2026-05-07 16:42 | 50.96952 | 9.64501 | 37059 ft | 448 kts | 6° |
| 2026-05-07 16:42 | 51.03118 | 9.65703 | 37059 ft | 448 kts | 6° |
| 2026-05-07 16:43 | 51.09325 | 9.66907 | 37059 ft | 448 kts | 6° |
| 2026-05-07 16:43 | 51.15474 | 9.68117 | 37061 ft | 448 kts | 6° |
| 2026-05-07 16:44 | 51.21672 | 9.69338 | 37067 ft | 448 kts | 5° |
| 2026-05-07 16:44 | 51.27878 | 9.70386 | 37068 ft | 448 kts | 4° |
| 2026-05-07 16:45 | 51.34098 | 9.71326 | 37080 ft | 448 kts | 4° |
| 2026-05-07 16:45 | 51.35102 | 9.71478 | 37080 ft | 448 kts | 4° |